sensor_id;sensor_type;location;lat;lon;timestamp;P1;durP1;ratioP1;P2;durP2;ratioP2
10617;SDS011;5356;43.526;26.534;2022-08-01T00:00:33;1.83;;;1.63;;
10617;SDS011;5356;43.526;26.534;2022-08-01T00:02:59;1.55;;;1.42;;
10617;SDS011;5356;43.526;26.534;2022-08-01T00:05:25;1.92;;;1.80;;
10617;SDS011;5356;43.526;26.534;2022-08-01T00:07:50;2.10;;;1.90;;
10617;SDS011;5356;43.526;26.534;2022-08-01T00:10:16;2.03;;;1.83;;
10617;SDS011;5356;43.526;26.534;2022-08-01T00:12:42;1.85;;;1.70;;
10617;SDS011;5356;43.526;26.534;2022-08-01T00:15:09;2.17;;;1.58;;
10617;SDS011;5356;43.526;26.534;2022-08-01T00:17:37;2.25;;;2.05;;
10617;SDS011;5356;43.526;26.534;2022-08-01T00:20:03;1.90;;;1.80;;
10617;SDS011;5356;43.526;26.534;2022-08-01T00:22:30;1.50;;;1.40;;
10617;SDS011;5356;43.526;26.534;2022-08-01T00:24:57;1.67;;;1.58;;
10617;SDS011;5356;43.526;26.534;2022-08-01T00:27:22;2.25;;;1.90;;
10617;SDS011;5356;43.526;26.534;2022-08-01T00:29:48;2.15;;;1.83;;
10617;SDS011;5356;43.526;26.534;2022-08-01T00:32:13;2.00;;;1.80;;
10617;SDS011;5356;43.526;26.534;2022-08-01T00:34:39;1.67;;;1.58;;
10617;SDS011;5356;43.526;26.534;2022-08-01T00:37:04;1.70;;;1.60;;
10617;SDS011;5356;43.526;26.534;2022-08-01T00:39:30;1.77;;;1.67;;
10617;SDS011;5356;43.526;26.534;2022-08-01T00:41:57;2.33;;;1.77;;
10617;SDS011;5356;43.526;26.534;2022-08-01T00:44:23;2.22;;;1.70;;
10617;SDS011;5356;43.526;26.534;2022-08-01T00:46:48;1.55;;;1.42;;
10617;SDS011;5356;43.526;26.534;2022-08-01T00:49:13;1.75;;;1.30;;
10617;SDS011;5356;43.526;26.534;2022-08-01T00:51:39;1.58;;;1.40;;
10617;SDS011;5356;43.526;26.534;2022-08-01T00:54:04;1.60;;;1.50;;
10617;SDS011;5356;43.526;26.534;2022-08-01T00:56:30;1.65;;;1.52;;
10617;SDS011;5356;43.526;26.534;2022-08-01T00:58:56;1.60;;;1.50;;
10617;SDS011;5356;43.526;26.534;2022-08-01T01:01:21;2.60;;;1.92;;
10617;SDS011;5356;43.526;26.534;2022-08-01T01:03:48;1.73;;;1.58;;
10617;SDS011;5356;43.526;26.534;2022-08-01T01:11:44;2.20;;;1.90;;
10617;SDS011;5356;43.526;26.534;2022-08-01T01:14:27;1.60;;;1.50;;
10617;SDS011;5356;43.526;26.534;2022-08-01T01:17:01;2.42;;;1.88;;
10617;SDS011;5356;43.526;26.534;2022-08-01T01:19:30;1.83;;;1.73;;
10617;SDS011;5356;43.526;26.534;2022-08-01T01:22:08;1.70;;;1.60;;
10617;SDS011;5356;43.526;26.534;2022-08-01T01:24:48;1.83;;;1.50;;
10617;SDS011;5356;43.526;26.534;2022-08-01T01:30:21;1.92;;;1.50;;
10617;SDS011;5356;43.526;26.534;2022-08-01T01:32:49;1.40;;;1.20;;
10617;SDS011;5356;43.526;26.534;2022-08-01T01:35:18;2.08;;;1.60;;
10617;SDS011;5356;43.526;26.534;2022-08-01T01:37:47;2.35;;;1.48;;
10617;SDS011;5356;43.526;26.534;2022-08-01T01:40:16;1.70;;;1.50;;
10617;SDS011;5356;43.526;26.534;2022-08-01T01:42:43;2.25;;;1.67;;
10617;SDS011;5356;43.526;26.534;2022-08-01T01:45:09;1.85;;;1.38;;
10617;SDS011;5356;43.526;26.534;2022-08-01T01:47:36;2.00;;;1.38;;
10617;SDS011;5356;43.526;26.534;2022-08-01T01:50:03;2.63;;;1.83;;
10617;SDS011;5356;43.526;26.534;2022-08-01T01:52:31;1.60;;;1.50;;
10617;SDS011;5356;43.526;26.534;2022-08-01T01:54:59;3.72;;;1.60;;
10617;SDS011;5356;43.526;26.534;2022-08-01T01:57:30;3.42;;;1.85;;
10617;SDS011;5356;43.526;26.534;2022-08-01T01:59:57;1.98;;;1.77;;
10617;SDS011;5356;43.526;26.534;2022-08-01T02:02:25;2.20;;;1.63;;
10617;SDS011;5356;43.526;26.534;2022-08-01T02:04:52;2.05;;;1.48;;
10617;SDS011;5356;43.526;26.534;2022-08-01T02:07:20;1.70;;;1.45;;
10617;SDS011;5356;43.526;26.534;2022-08-01T02:09:49;2.38;;;1.90;;
10617;SDS011;5356;43.526;26.534;2022-08-01T02:12:16;2.13;;;1.92;;
10617;SDS011;5356;43.526;26.534;2022-08-01T02:14:44;1.80;;;1.30;;
10617;SDS011;5356;43.526;26.534;2022-08-01T02:17:12;3.85;;;2.05;;
10617;SDS011;5356;43.526;26.534;2022-08-01T02:19:42;1.88;;;1.70;;
10617;SDS011;5356;43.526;26.534;2022-08-01T02:22:11;2.22;;;1.50;;
10617;SDS011;5356;43.526;26.534;2022-08-01T02:27:11;2.15;;;1.52;;
10617;SDS011;5356;43.526;26.534;2022-08-01T02:32:11;2.53;;;1.40;;
10617;SDS011;5356;43.526;26.534;2022-08-01T02:34:39;1.60;;;1.50;;
10617;SDS011;5356;43.526;26.534;2022-08-01T02:37:06;1.73;;;1.58;;
10617;SDS011;5356;43.526;26.534;2022-08-01T02:39:35;2.83;;;1.67;;
10617;SDS011;5356;43.526;26.534;2022-08-01T02:42:02;1.73;;;1.50;;
10617;SDS011;5356;43.526;26.534;2022-08-01T02:44:31;1.70;;;1.60;;
10617;SDS011;5356;43.526;26.534;2022-08-01T02:47:02;2.20;;;1.50;;
10617;SDS011;5356;43.526;26.534;2022-08-01T02:49:31;2.95;;;1.80;;
10617;SDS011;5356;43.526;26.534;2022-08-01T02:52:07;1.73;;;1.63;;
10617;SDS011;5356;43.526;26.534;2022-08-01T02:54:35;1.88;;;1.70;;
10617;SDS011;5356;43.526;26.534;2022-08-01T02:57:02;4.20;;;1.70;;
10617;SDS011;5356;43.526;26.534;2022-08-01T02:59:29;3.22;;;2.00;;
10617;SDS011;5356;43.526;26.534;2022-08-01T03:01:56;2.75;;;1.73;;
10617;SDS011;5356;43.526;26.534;2022-08-01T03:04:24;2.35;;;1.50;;
10617;SDS011;5356;43.526;26.534;2022-08-01T03:06:52;3.25;;;1.80;;
10617;SDS011;5356;43.526;26.534;2022-08-01T03:09:19;3.58;;;1.65;;
10617;SDS011;5356;43.526;26.534;2022-08-01T03:11:46;2.05;;;1.58;;
10617;SDS011;5356;43.526;26.534;2022-08-01T03:14:14;2.35;;;1.60;;
10617;SDS011;5356;43.526;26.534;2022-08-01T03:16:42;2.55;;;2.35;;
10617;SDS011;5356;43.526;26.534;2022-08-01T03:19:11;2.38;;;1.45;;
10617;SDS011;5356;43.526;26.534;2022-08-01T03:21:37;2.72;;;1.60;;
10617;SDS011;5356;43.526;26.534;2022-08-01T03:24:05;1.50;;;1.30;;
10617;SDS011;5356;43.526;26.534;2022-08-01T03:26:33;3.03;;;1.75;;
10617;SDS011;5356;43.526;26.534;2022-08-01T03:29:04;2.17;;;1.30;;
10617;SDS011;5356;43.526;26.534;2022-08-01T03:31:32;2.35;;;2.10;;
10617;SDS011;5356;43.526;26.534;2022-08-01T03:34:00;3.97;;;1.70;;
10617;SDS011;5356;43.526;26.534;2022-08-01T03:36:26;3.17;;;2.30;;
10617;SDS011;5356;43.526;26.534;2022-08-01T03:38:54;3.53;;;1.80;;
10617;SDS011;5356;43.526;26.534;2022-08-01T03:41:23;5.07;;;2.35;;
10617;SDS011;5356;43.526;26.534;2022-08-01T03:43:53;4.00;;;2.25;;
10617;SDS011;5356;43.526;26.534;2022-08-01T03:46:26;2.67;;;1.90;;
10617;SDS011;5356;43.526;26.534;2022-08-01T03:48:58;2.95;;;2.40;;
10617;SDS011;5356;43.526;26.534;2022-08-01T03:51:28;3.10;;;1.90;;
10617;SDS011;5356;43.526;26.534;2022-08-01T03:53:55;1.98;;;1.65;;
10617;SDS011;5356;43.526;26.534;2022-08-01T03:56:24;2.47;;;2.00;;
10617;SDS011;5356;43.526;26.534;2022-08-01T03:58:51;2.53;;;1.90;;
10617;SDS011;5356;43.526;26.534;2022-08-01T04:01:18;4.47;;;2.70;;
10617;SDS011;5356;43.526;26.534;2022-08-01T04:03:44;6.10;;;2.70;;
10617;SDS011;5356;43.526;26.534;2022-08-01T04:06:10;8.80;;;3.83;;
10617;SDS011;5356;43.526;26.534;2022-08-01T04:08:39;4.50;;;2.65;;
10617;SDS011;5356;43.526;26.534;2022-08-01T04:11:05;3.75;;;2.13;;
10617;SDS011;5356;43.526;26.534;2022-08-01T04:13:32;3.72;;;2.50;;
10617;SDS011;5356;43.526;26.534;2022-08-01T04:15:58;2.50;;;2.28;;
10617;SDS011;5356;43.526;26.534;2022-08-01T04:18:23;7.53;;;2.72;;
10617;SDS011;5356;43.526;26.534;2022-08-01T04:20:49;3.17;;;1.70;;
10617;SDS011;5356;43.526;26.534;2022-08-01T04:23:16;3.55;;;1.83;;
10617;SDS011;5356;43.526;26.534;2022-08-01T04:25:44;2.00;;;1.75;;
10617;SDS011;5356;43.526;26.534;2022-08-01T04:28:12;2.38;;;1.80;;
10617;SDS011;5356;43.526;26.534;2022-08-01T04:30:42;2.03;;;1.70;;
10617;SDS011;5356;43.526;26.534;2022-08-01T04:33:10;3.28;;;1.75;;
10617;SDS011;5356;43.526;26.534;2022-08-01T04:35:41;2.08;;;1.58;;
10617;SDS011;5356;43.526;26.534;2022-08-01T04:38:10;2.53;;;1.60;;
10617;SDS011;5356;43.526;26.534;2022-08-01T04:40:39;2.38;;;1.50;;
10617;SDS011;5356;43.526;26.534;2022-08-01T04:43:06;1.88;;;1.35;;
10617;SDS011;5356;43.526;26.534;2022-08-01T04:45:32;1.40;;;1.30;;
10617;SDS011;5356;43.526;26.534;2022-08-01T04:47:59;3.70;;;1.40;;
10617;SDS011;5356;43.526;26.534;2022-08-01T04:50:25;2.83;;;1.77;;
10617;SDS011;5356;43.526;26.534;2022-08-01T04:52:51;2.08;;;1.67;;
10617;SDS011;5356;43.526;26.534;2022-08-01T04:55:17;1.52;;;1.35;;
10617;SDS011;5356;43.526;26.534;2022-08-01T04:57:42;1.88;;;1.65;;
10617;SDS011;5356;43.526;26.534;2022-08-01T05:00:10;2.72;;;1.67;;
10617;SDS011;5356;43.526;26.534;2022-08-01T05:02:36;2.22;;;1.60;;
10617;SDS011;5356;43.526;26.534;2022-08-01T05:05:02;2.00;;;1.75;;
10617;SDS011;5356;43.526;26.534;2022-08-01T05:07:28;1.90;;;1.40;;
10617;SDS011;5356;43.526;26.534;2022-08-01T05:09:53;3.45;;;2.15;;
10617;SDS011;5356;43.526;26.534;2022-08-01T05:12:19;1.60;;;1.50;;
10617;SDS011;5356;43.526;26.534;2022-08-01T05:14:45;2.85;;;1.95;;
10617;SDS011;5356;43.526;26.534;2022-08-01T05:17:11;3.00;;;1.63;;
10617;SDS011;5356;43.526;26.534;2022-08-01T05:19:37;3.50;;;1.50;;
10617;SDS011;5356;43.526;26.534;2022-08-01T05:22:04;3.30;;;2.15;;
10617;SDS011;5356;43.526;26.534;2022-08-01T05:24:32;3.58;;;2.38;;
10617;SDS011;5356;43.526;26.534;2022-08-01T05:27:01;2.53;;;1.30;;
10617;SDS011;5356;43.526;26.534;2022-08-01T05:29:28;3.17;;;1.80;;
10617;SDS011;5356;43.526;26.534;2022-08-01T05:31:54;1.88;;;1.42;;
10617;SDS011;5356;43.526;26.534;2022-08-01T05:34:19;3.80;;;1.40;;
10617;SDS011;5356;43.526;26.534;2022-08-01T05:36:45;1.90;;;1.50;;
10617;SDS011;5356;43.526;26.534;2022-08-01T05:39:11;1.60;;;1.50;;
10617;SDS011;5356;43.526;26.534;2022-08-01T05:41:38;4.28;;;1.67;;
10617;SDS011;5356;43.526;26.534;2022-08-01T05:44:04;1.80;;;1.40;;
10617;SDS011;5356;43.526;26.534;2022-08-01T05:46:30;2.08;;;1.40;;
10617;SDS011;5356;43.526;26.534;2022-08-01T05:48:59;4.57;;;1.95;;
10617;SDS011;5356;43.526;26.534;2022-08-01T05:51:26;1.60;;;1.33;;
10617;SDS011;5356;43.526;26.534;2022-08-01T05:53:51;1.35;;;1.25;;
10617;SDS011;5356;43.526;26.534;2022-08-01T05:56:18;2.55;;;1.45;;
10617;SDS011;5356;43.526;26.534;2022-08-01T05:58:43;2.13;;;1.30;;
10617;SDS011;5356;43.526;26.534;2022-08-01T06:01:09;2.47;;;1.90;;
10617;SDS011;5356;43.526;26.534;2022-08-01T06:03:35;1.30;;;1.20;;
10617;SDS011;5356;43.526;26.534;2022-08-01T06:06:01;1.55;;;1.42;;
10617;SDS011;5356;43.526;26.534;2022-08-01T06:08:27;3.70;;;1.33;;
10617;SDS011;5356;43.526;26.534;2022-08-01T06:10:52;2.40;;;1.40;;
10617;SDS011;5356;43.526;26.534;2022-08-01T06:13:18;2.25;;;1.58;;
10617;SDS011;5356;43.526;26.534;2022-08-01T06:15:44;2.22;;;1.58;;
10617;SDS011;5356;43.526;26.534;2022-08-01T06:18:10;1.48;;;1.25;;
10617;SDS011;5356;43.526;26.534;2022-08-01T06:20:36;1.42;;;1.33;;
10617;SDS011;5356;43.526;26.534;2022-08-01T06:23:02;2.53;;;1.58;;
10617;SDS011;5356;43.526;26.534;2022-08-01T06:25:27;1.42;;;1.33;;
10617;SDS011;5356;43.526;26.534;2022-08-01T06:27:52;2.75;;;1.45;;
10617;SDS011;5356;43.526;26.534;2022-08-01T06:30:18;1.30;;;1.20;;
10617;SDS011;5356;43.526;26.534;2022-08-01T06:32:44;3.90;;;1.58;;
10617;SDS011;5356;43.526;26.534;2022-08-01T06:35:09;5.10;;;1.70;;
10617;SDS011;5356;43.526;26.534;2022-08-01T06:37:34;1.45;;;1.35;;
10617;SDS011;5356;43.526;26.534;2022-08-01T06:40:03;13.30;;;2.60;;
10617;SDS011;5356;43.526;26.534;2022-08-01T06:42:30;2.25;;;1.30;;
10617;SDS011;5356;43.526;26.534;2022-08-01T06:45:05;3.28;;;1.60;;
10617;SDS011;5356;43.526;26.534;2022-08-01T06:47:35;3.33;;;1.25;;
10617;SDS011;5356;43.526;26.534;2022-08-01T06:50:02;1.98;;;1.30;;
10617;SDS011;5356;43.526;26.534;2022-08-01T06:52:31;3.03;;;1.40;;
10617;SDS011;5356;43.526;26.534;2022-08-01T06:54:56;1.40;;;1.10;;
10617;SDS011;5356;43.526;26.534;2022-08-01T06:57:22;1.25;;;1.13;;
10617;SDS011;5356;43.526;26.534;2022-08-01T06:59:47;1.88;;;1.27;;
10617;SDS011;5356;43.526;26.534;2022-08-01T07:02:13;1.90;;;1.60;;
10617;SDS011;5356;43.526;26.534;2022-08-01T07:04:39;2.67;;;1.45;;
10617;SDS011;5356;43.526;26.534;2022-08-01T07:07:04;1.85;;;1.60;;
10617;SDS011;5356;43.526;26.534;2022-08-01T07:09:30;2.15;;;1.55;;
10617;SDS011;5356;43.526;26.534;2022-08-01T07:11:55;12.10;;;3.60;;
10617;SDS011;5356;43.526;26.534;2022-08-01T07:14:21;12.52;;;2.55;;
10617;SDS011;5356;43.526;26.534;2022-08-01T07:16:47;2.08;;;1.75;;
10617;SDS011;5356;43.526;26.534;2022-08-01T07:19:13;1.73;;;1.25;;
10617;SDS011;5356;43.526;26.534;2022-08-01T07:21:38;1.92;;;1.50;;
10617;SDS011;5356;43.526;26.534;2022-08-01T07:24:05;3.83;;;2.22;;
10617;SDS011;5356;43.526;26.534;2022-08-01T07:26:31;3.22;;;1.45;;
10617;SDS011;5356;43.526;26.534;2022-08-01T07:28:57;2.38;;;1.48;;
10617;SDS011;5356;43.526;26.534;2022-08-01T07:31:22;5.50;;;2.33;;
10617;SDS011;5356;43.526;26.534;2022-08-01T07:33:48;1.45;;;1.35;;
10617;SDS011;5356;43.526;26.534;2022-08-01T07:36:15;1.77;;;1.42;;
10617;SDS011;5356;43.526;26.534;2022-08-01T07:38:41;1.88;;;1.13;;
10617;SDS011;5356;43.526;26.534;2022-08-01T07:41:06;2.05;;;1.40;;
10617;SDS011;5356;43.526;26.534;2022-08-01T07:43:32;3.10;;;1.40;;
10617;SDS011;5356;43.526;26.534;2022-08-01T07:45:57;2.40;;;1.33;;
10617;SDS011;5356;43.526;26.534;2022-08-01T07:48:22;3.67;;;1.98;;
10617;SDS011;5356;43.526;26.534;2022-08-01T07:50:50;3.60;;;1.30;;
10617;SDS011;5356;43.526;26.534;2022-08-01T07:53:16;4.03;;;1.42;;
10617;SDS011;5356;43.526;26.534;2022-08-01T07:55:41;1.40;;;1.20;;
10617;SDS011;5356;43.526;26.534;2022-08-01T07:58:07;2.30;;;1.40;;
10617;SDS011;5356;43.526;26.534;2022-08-01T08:00:33;1.30;;;1.13;;
10617;SDS011;5356;43.526;26.534;2022-08-01T08:02:58;2.13;;;1.80;;
10617;SDS011;5356;43.526;26.534;2022-08-01T08:05:24;1.98;;;1.30;;
10617;SDS011;5356;43.526;26.534;2022-08-01T08:07:51;1.10;;;1.00;;
10617;SDS011;5356;43.526;26.534;2022-08-01T08:10:16;2.53;;;1.15;;
10617;SDS011;5356;43.526;26.534;2022-08-01T08:12:42;2.20;;;1.20;;
10617;SDS011;5356;43.526;26.534;2022-08-01T08:15:07;2.97;;;1.65;;
10617;SDS011;5356;43.526;26.534;2022-08-01T08:17:33;1.35;;;1.23;;
10617;SDS011;5356;43.526;26.534;2022-08-01T08:19:59;2.60;;;1.42;;
10617;SDS011;5356;43.526;26.534;2022-08-01T08:22:24;2.45;;;1.40;;
10617;SDS011;5356;43.526;26.534;2022-08-01T08:24:50;3.70;;;1.92;;
10617;SDS011;5356;43.526;26.534;2022-08-01T08:27:15;5.95;;;1.80;;
10617;SDS011;5356;43.526;26.534;2022-08-01T08:29:41;4.45;;;2.33;;
10617;SDS011;5356;43.526;26.534;2022-08-01T08:32:07;4.28;;;1.52;;
10617;SDS011;5356;43.526;26.534;2022-08-01T08:34:32;5.85;;;2.50;;
10617;SDS011;5356;43.526;26.534;2022-08-01T08:36:58;4.40;;;1.65;;
10617;SDS011;5356;43.526;26.534;2022-08-01T08:39:25;3.67;;;2.40;;
10617;SDS011;5356;43.526;26.534;2022-08-01T08:41:51;4.85;;;2.63;;
10617;SDS011;5356;43.526;26.534;2022-08-01T08:44:17;2.25;;;1.48;;
10617;SDS011;5356;43.526;26.534;2022-08-01T08:46:48;1.67;;;1.52;;
10617;SDS011;5356;43.526;26.534;2022-08-01T08:49:17;11.68;;;3.13;;
10617;SDS011;5356;43.526;26.534;2022-08-01T08:51:47;2.67;;;2.38;;
10617;SDS011;5356;43.526;26.534;2022-08-01T08:54:14;2.55;;;1.88;;
10617;SDS011;5356;43.526;26.534;2022-08-01T08:56:41;3.33;;;1.77;;
10617;SDS011;5356;43.526;26.534;2022-08-01T08:59:08;1.88;;;1.67;;
10617;SDS011;5356;43.526;26.534;2022-08-01T09:01:36;2.97;;;2.00;;
10617;SDS011;5356;43.526;26.534;2022-08-01T09:04:04;2.67;;;1.90;;
10617;SDS011;5356;43.526;26.534;2022-08-01T09:06:30;3.35;;;1.83;;
10617;SDS011;5356;43.526;26.534;2022-08-01T09:08:57;3.67;;;1.95;;
10617;SDS011;5356;43.526;26.534;2022-08-01T09:11:23;2.75;;;2.17;;
10617;SDS011;5356;43.526;26.534;2022-08-01T09:14:05;4.05;;;2.35;;
10617;SDS011;5356;43.526;26.534;2022-08-01T09:16:36;5.53;;;3.35;;
10617;SDS011;5356;43.526;26.534;2022-08-01T09:19:08;2.97;;;2.47;;
10617;SDS011;5356;43.526;26.534;2022-08-01T09:21:33;5.20;;;2.60;;
10617;SDS011;5356;43.526;26.534;2022-08-01T09:23:59;5.22;;;3.30;;
10617;SDS011;5356;43.526;26.534;2022-08-01T09:26:32;3.03;;;2.38;;
10617;SDS011;5356;43.526;26.534;2022-08-01T09:29:00;2.85;;;2.55;;
10617;SDS011;5356;43.526;26.534;2022-08-01T09:31:42;3.58;;;3.28;;
10617;SDS011;5356;43.526;26.534;2022-08-01T09:34:09;3.78;;;2.70;;
10617;SDS011;5356;43.526;26.534;2022-08-01T09:36:45;3.92;;;2.97;;
10617;SDS011;5356;43.526;26.534;2022-08-01T09:39:22;3.95;;;2.75;;
10617;SDS011;5356;43.526;26.534;2022-08-01T09:41:50;3.80;;;2.80;;
10617;SDS011;5356;43.526;26.534;2022-08-01T09:44:16;3.33;;;2.65;;
10617;SDS011;5356;43.526;26.534;2022-08-01T09:46:51;3.10;;;2.78;;
10617;SDS011;5356;43.526;26.534;2022-08-01T09:49:30;3.20;;;2.90;;
10617;SDS011;5356;43.526;26.534;2022-08-01T09:51:58;3.70;;;2.63;;
10617;SDS011;5356;43.526;26.534;2022-08-01T09:54:31;3.88;;;3.20;;
10617;SDS011;5356;43.526;26.534;2022-08-01T09:57:11;3.60;;;2.78;;
10617;SDS011;5356;43.526;26.534;2022-08-01T09:59:39;10.30;;;3.17;;
10617;SDS011;5356;43.526;26.534;2022-08-01T10:02:11;5.03;;;3.28;;
10617;SDS011;5356;43.526;26.534;2022-08-01T10:04:49;4.35;;;3.35;;
10617;SDS011;5356;43.526;26.534;2022-08-01T10:07:16;4.60;;;2.92;;
10617;SDS011;5356;43.526;26.534;2022-08-01T10:09:43;3.63;;;2.53;;
10617;SDS011;5356;43.526;26.534;2022-08-01T10:12:10;5.22;;;3.10;;
10617;SDS011;5356;43.526;26.534;2022-08-01T10:14:37;7.00;;;4.43;;
10617;SDS011;5356;43.526;26.534;2022-08-01T10:17:04;2.80;;;2.60;;
10617;SDS011;5356;43.526;26.534;2022-08-01T10:19:33;10.40;;;5.53;;
10617;SDS011;5356;43.526;26.534;2022-08-01T10:22:00;5.15;;;2.88;;
10617;SDS011;5356;43.526;26.534;2022-08-01T10:24:29;3.90;;;3.10;;
10617;SDS011;5356;43.526;26.534;2022-08-01T10:26:59;3.33;;;2.92;;
10617;SDS011;5356;43.526;26.534;2022-08-01T10:29:30;4.15;;;3.10;;
10617;SDS011;5356;43.526;26.534;2022-08-01T10:31:59;4.72;;;3.42;;
10617;SDS011;5356;43.526;26.534;2022-08-01T10:34:25;9.55;;;4.70;;
10617;SDS011;5356;43.526;26.534;2022-08-01T10:36:52;8.77;;;4.20;;
10617;SDS011;5356;43.526;26.534;2022-08-01T10:39:18;5.28;;;3.25;;
10617;SDS011;5356;43.526;26.534;2022-08-01T10:41:45;2.85;;;2.60;;
10617;SDS011;5356;43.526;26.534;2022-08-01T10:44:11;4.30;;;2.72;;
10617;SDS011;5356;43.526;26.534;2022-08-01T10:46:37;2.95;;;2.58;;
10617;SDS011;5356;43.526;26.534;2022-08-01T10:49:06;3.05;;;2.75;;
10617;SDS011;5356;43.526;26.534;2022-08-01T10:51:36;3.85;;;3.10;;
10617;SDS011;5356;43.526;26.534;2022-08-01T10:54:07;5.47;;;3.45;;
10617;SDS011;5356;43.526;26.534;2022-08-01T10:56:44;3.30;;;3.00;;
10617;SDS011;5356;43.526;26.534;2022-08-01T10:59:14;3.33;;;2.90;;
10617;SDS011;5356;43.526;26.534;2022-08-01T11:01:47;4.82;;;3.25;;
10617;SDS011;5356;43.526;26.534;2022-08-01T11:04:34;3.38;;;3.08;;
10617;SDS011;5356;43.526;26.534;2022-08-01T11:07:06;5.28;;;3.00;;
10617;SDS011;5356;43.526;26.534;2022-08-01T11:09:40;4.32;;;3.38;;
10617;SDS011;5356;43.526;26.534;2022-08-01T11:17:34;3.42;;;3.10;;
10617;SDS011;5356;43.526;26.534;2022-08-01T11:20:04;3.40;;;3.10;;
10617;SDS011;5356;43.526;26.534;2022-08-01T11:30:41;4.10;;;2.85;;
10617;SDS011;5356;43.526;26.534;2022-08-01T11:33:18;3.15;;;2.83;;
10617;SDS011;5356;43.526;26.534;2022-08-01T11:38:41;8.98;;;4.38;;
10617;SDS011;5356;43.526;26.534;2022-08-01T11:41:23;3.08;;;2.80;;
10617;SDS011;5356;43.526;26.534;2022-08-01T11:47:18;3.28;;;2.97;;
10617;SDS011;5356;43.526;26.534;2022-08-01T11:52:09;10.25;;;4.55;;
10617;SDS011;5356;43.526;26.534;2022-08-01T11:57:13;8.15;;;3.83;;
10617;SDS011;5356;43.526;26.534;2022-08-01T11:59:48;2.75;;;2.55;;
10617;SDS011;5356;43.526;26.534;2022-08-01T12:02:16;3.08;;;2.70;;
10617;SDS011;5356;43.526;26.534;2022-08-01T12:07:14;2.90;;;2.60;;
10617;SDS011;5356;43.526;26.534;2022-08-01T12:09:40;4.53;;;2.80;;
10617;SDS011;5356;43.526;26.534;2022-08-01T12:12:06;3.10;;;2.75;;
10617;SDS011;5356;43.526;26.534;2022-08-01T12:14:31;6.30;;;3.00;;
10617;SDS011;5356;43.526;26.534;2022-08-01T12:16:57;3.65;;;2.47;;
10617;SDS011;5356;43.526;26.534;2022-08-01T12:19:23;2.88;;;2.58;;
10617;SDS011;5356;43.526;26.534;2022-08-01T12:24:38;2.90;;;2.38;;
10617;SDS011;5356;43.526;26.534;2022-08-01T12:27:05;3.17;;;2.30;;
10617;SDS011;5356;43.526;26.534;2022-08-01T12:29:35;2.85;;;2.25;;
10617;SDS011;5356;43.526;26.534;2022-08-01T12:32:03;2.38;;;2.17;;
10617;SDS011;5356;43.526;26.534;2022-08-01T12:34:29;2.97;;;2.67;;
10617;SDS011;5356;43.526;26.534;2022-08-01T12:36:58;4.13;;;2.33;;
10617;SDS011;5356;43.526;26.534;2022-08-01T12:39:34;3.00;;;2.65;;
10617;SDS011;5356;43.526;26.534;2022-08-01T12:42:00;2.50;;;2.30;;
10617;SDS011;5356;43.526;26.534;2022-08-01T12:44:29;2.63;;;2.25;;
10617;SDS011;5356;43.526;26.534;2022-08-01T12:46:56;2.92;;;2.50;;
10617;SDS011;5356;43.526;26.534;2022-08-01T12:49:22;3.05;;;2.28;;
10617;SDS011;5356;43.526;26.534;2022-08-01T12:51:49;2.40;;;2.10;;
10617;SDS011;5356;43.526;26.534;2022-08-01T12:54:15;3.60;;;2.30;;
10617;SDS011;5356;43.526;26.534;2022-08-01T12:56:40;5.32;;;3.22;;
10617;SDS011;5356;43.526;26.534;2022-08-01T12:59:22;2.95;;;2.17;;
10617;SDS011;5356;43.526;26.534;2022-08-01T13:01:52;5.82;;;2.00;;
10617;SDS011;5356;43.526;26.534;2022-08-01T13:04:21;2.22;;;2.03;;
10617;SDS011;5356;43.526;26.534;2022-08-01T13:06:48;2.28;;;2.08;;
10617;SDS011;5356;43.526;26.534;2022-08-01T13:09:18;3.25;;;2.10;;
10617;SDS011;5356;43.526;26.534;2022-08-01T13:11:44;3.92;;;2.50;;
10617;SDS011;5356;43.526;26.534;2022-08-01T13:14:11;5.03;;;2.28;;
10617;SDS011;5356;43.526;26.534;2022-08-01T13:16:52;1.80;;;1.70;;
10617;SDS011;5356;43.526;26.534;2022-08-01T13:19:17;7.25;;;3.55;;
10617;SDS011;5356;43.526;26.534;2022-08-01T13:22:15;5.03;;;3.05;;
10617;SDS011;5356;43.526;26.534;2022-08-01T13:24:34;5.40;;;2.65;;
10617;SDS011;5356;43.526;26.534;2022-08-01T13:27:00;2.40;;;2.10;;
10617;SDS011;5356;43.526;26.534;2022-08-01T13:31:57;3.40;;;2.40;;
10617;SDS011;5356;43.526;26.534;2022-08-01T13:34:30;6.50;;;4.07;;
10617;SDS011;5356;43.526;26.534;2022-08-01T13:39:22;4.38;;;3.42;;
10617;SDS011;5356;43.526;26.534;2022-08-01T13:42:07;3.67;;;2.50;;
10617;SDS011;5356;43.526;26.534;2022-08-01T13:44:34;2.80;;;2.10;;
10617;SDS011;5356;43.526;26.534;2022-08-01T13:46:59;3.30;;;2.85;;
10617;SDS011;5356;43.526;26.534;2022-08-01T13:49:25;10.30;;;5.57;;
10617;SDS011;5356;43.526;26.534;2022-08-01T13:51:50;3.45;;;2.95;;
10617;SDS011;5356;43.526;26.534;2022-08-01T13:54:16;3.70;;;2.10;;
10617;SDS011;5356;43.526;26.534;2022-08-01T13:56:42;2.40;;;1.92;;
10617;SDS011;5356;43.526;26.534;2022-08-01T13:59:08;7.30;;;2.65;;
10617;SDS011;5356;43.526;26.534;2022-08-01T14:01:34;3.40;;;2.85;;
10617;SDS011;5356;43.526;26.534;2022-08-01T14:04:00;2.80;;;2.13;;
10617;SDS011;5356;43.526;26.534;2022-08-01T14:06:26;4.70;;;3.08;;
10617;SDS011;5356;43.526;26.534;2022-08-01T14:08:52;3.17;;;2.45;;
10617;SDS011;5356;43.526;26.534;2022-08-01T14:11:17;4.43;;;2.40;;
10617;SDS011;5356;43.526;26.534;2022-08-01T14:13:43;3.38;;;2.22;;
10617;SDS011;5356;43.526;26.534;2022-08-01T14:16:09;5.30;;;2.80;;
10617;SDS011;5356;43.526;26.534;2022-08-01T14:18:34;3.75;;;2.55;;
10617;SDS011;5356;43.526;26.534;2022-08-01T14:21:00;2.63;;;2.42;;
10617;SDS011;5356;43.526;26.534;2022-08-01T14:23:25;6.32;;;4.07;;
10617;SDS011;5356;43.526;26.534;2022-08-01T14:25:51;3.85;;;3.05;;
10617;SDS011;5356;43.526;26.534;2022-08-01T14:28:17;4.40;;;2.63;;
10617;SDS011;5356;43.526;26.534;2022-08-01T14:30:43;13.45;;;5.90;;
10617;SDS011;5356;43.526;26.534;2022-08-01T14:33:12;4.38;;;2.58;;
10617;SDS011;5356;43.526;26.534;2022-08-01T14:35:38;4.68;;;2.70;;
10617;SDS011;5356;43.526;26.534;2022-08-01T14:38:04;2.83;;;2.45;;
10617;SDS011;5356;43.526;26.534;2022-08-01T14:40:29;4.93;;;2.60;;
10617;SDS011;5356;43.526;26.534;2022-08-01T14:42:55;6.13;;;2.63;;
10617;SDS011;5356;43.526;26.534;2022-08-01T14:45:20;4.22;;;2.92;;
10617;SDS011;5356;43.526;26.534;2022-08-01T14:47:46;11.55;;;5.88;;
10617;SDS011;5356;43.526;26.534;2022-08-01T14:50:13;6.10;;;4.47;;
10617;SDS011;5356;43.526;26.534;2022-08-01T14:52:39;4.78;;;3.83;;
10617;SDS011;5356;43.526;26.534;2022-08-01T14:55:07;3.38;;;2.83;;
10617;SDS011;5356;43.526;26.534;2022-08-01T14:57:33;5.53;;;2.90;;
10617;SDS011;5356;43.526;26.534;2022-08-01T14:59:59;6.03;;;3.22;;
10617;SDS011;5356;43.526;26.534;2022-08-01T15:02:25;5.75;;;4.78;;
10617;SDS011;5356;43.526;26.534;2022-08-01T15:04:51;4.57;;;2.63;;
10617;SDS011;5356;43.526;26.534;2022-08-01T15:07:17;5.47;;;3.88;;
10617;SDS011;5356;43.526;26.534;2022-08-01T15:09:43;7.25;;;3.55;;
10617;SDS011;5356;43.526;26.534;2022-08-01T15:12:10;5.85;;;4.80;;
10617;SDS011;5356;43.526;26.534;2022-08-01T15:14:36;3.85;;;3.10;;
10617;SDS011;5356;43.526;26.534;2022-08-01T15:19:45;3.45;;;2.90;;
10617;SDS011;5356;43.526;26.534;2022-08-01T15:22:15;3.75;;;2.88;;
10617;SDS011;5356;43.526;26.534;2022-08-01T15:24:41;3.67;;;2.80;;
10617;SDS011;5356;43.526;26.534;2022-08-01T15:27:07;2.85;;;2.53;;
10617;SDS011;5356;43.526;26.534;2022-08-01T15:29:33;2.65;;;2.45;;
10617;SDS011;5356;43.526;26.534;2022-08-01T15:32:00;4.30;;;3.08;;
10617;SDS011;5356;43.526;26.534;2022-08-01T15:34:26;5.47;;;2.58;;
10617;SDS011;5356;43.526;26.534;2022-08-01T15:36:51;3.78;;;2.55;;
10617;SDS011;5356;43.526;26.534;2022-08-01T15:39:17;5.10;;;2.42;;
10617;SDS011;5356;43.526;26.534;2022-08-01T15:41:42;2.95;;;2.63;;